createdAt,value
2023-05-06T00:01:52.436Z,10.58
2023-05-06T00:04:18.773Z,10.58
2023-05-06T00:06:46.457Z,10.58
2023-05-06T00:09:12.768Z,10.63
2023-05-06T00:11:39.024Z,10.59
2023-05-06T00:14:05.805Z,10.55
2023-05-06T00:16:32.302Z,10.50
2023-05-06T00:18:58.684Z,10.42
2023-05-06T00:21:26.362Z,10.39
2023-05-06T00:23:53.729Z,10.33
2023-05-06T00:26:20.060Z,10.21
2023-05-06T00:28:46.357Z,10.08
2023-05-06T00:31:12.724Z,10.06
2023-05-06T00:33:39.032Z,10.04
2023-05-06T00:36:05.637Z,10.06
2023-05-06T00:38:31.968Z,10.05
2023-05-06T00:40:58.936Z,10.09
2023-05-06T00:43:25.247Z,10.08
2023-05-06T00:45:51.604Z,9.96
2023-05-06T00:48:18.215Z,9.88
2023-05-06T00:50:45.628Z,9.76
2023-05-06T00:53:12.086Z,9.73
2023-05-06T00:55:39.365Z,9.63
2023-05-06T00:58:06.780Z,9.61
2023-05-06T01:00:34.005Z,9.58
2023-05-06T01:03:00.397Z,9.51
2023-05-06T01:05:35.343Z,9.42
2023-05-06T01:08:11.582Z,9.32
2023-05-06T01:10:44.683Z,9.30
2023-05-06T01:13:21.040Z,9.33
2023-05-06T01:15:51.236Z,9.22
2023-05-06T01:18:20.952Z,9.17
2023-05-06T01:20:49.297Z,9.13
2023-05-06T01:23:17.180Z,9.14
2023-05-06T01:25:43.587Z,9.14
2023-05-06T01:28:11.345Z,9.11
2023-05-06T01:30:45.145Z,9.12
2023-05-06T01:33:17.170Z,9.21
2023-05-06T01:35:53.944Z,9.21
2023-05-06T01:38:30.650Z,9.17
2023-05-06T01:40:58.053Z,9.13
2023-05-06T01:43:29.323Z,9.01
2023-05-06T01:45:56.751Z,8.99
2023-05-06T01:48:25.997Z,8.91
2023-05-06T01:50:52.637Z,8.83
2023-05-06T01:53:19.011Z,8.80
2023-05-06T01:55:45.986Z,8.74
2023-05-06T01:58:12.267Z,8.69
2023-05-06T02:00:38.669Z,8.79
2023-05-06T02:03:05.038Z,8.86
2023-05-06T02:05:31.438Z,8.83
2023-05-06T02:07:57.882Z,8.84
2023-05-06T02:10:24.189Z,8.77
2023-05-06T02:12:51.176Z,8.68
2023-05-06T02:15:17.661Z,8.65
2023-05-06T02:17:44.012Z,8.64
2023-05-06T02:20:10.609Z,8.61
2023-05-06T02:22:36.915Z,8.65
2023-05-06T02:25:03.531Z,8.68
2023-05-06T02:27:30.086Z,8.80
2023-05-06T02:29:57.018Z,8.90
2023-05-06T02:32:23.352Z,8.98
2023-05-06T02:34:50.925Z,9.06
2023-05-06T02:37:17.231Z,9.02
2023-05-06T02:39:43.558Z,9.03
2023-05-06T02:42:13.855Z,8.96
2023-05-06T02:44:40.183Z,8.95
2023-05-06T02:47:07.096Z,8.99
2023-05-06T02:49:33.432Z,8.96
2023-05-06T02:51:59.797Z,9.05
2023-05-06T02:54:26.800Z,9.00
2023-05-06T02:56:53.219Z,8.90
2023-05-06T02:59:19.485Z,8.85
2023-05-06T03:01:45.747Z,8.82
2023-05-06T03:04:12.748Z,8.84
2023-05-06T03:06:39.116Z,8.75
2023-05-06T03:09:05.531Z,8.79
2023-05-06T03:11:32.026Z,8.90
2023-05-06T03:13:58.333Z,8.96
2023-05-06T03:16:24.705Z,9.06
2023-05-06T03:18:50.986Z,9.11
2023-05-06T03:21:18.014Z,9.14
2023-05-06T03:23:44.349Z,9.11
2023-05-06T03:26:10.666Z,9.00
2023-05-06T03:28:36.960Z,9.08
2023-05-06T03:31:03.342Z,9.16
2023-05-06T03:33:29.634Z,9.01
2023-05-06T03:35:55.906Z,9.01
2023-05-06T03:38:22.805Z,9.10
2023-05-06T03:40:49.165Z,9.20
2023-05-06T03:43:16.039Z,9.29
2023-05-06T03:45:42.461Z,9.23
2023-05-06T03:48:08.814Z,9.28
2023-05-06T03:50:35.390Z,9.16
2023-05-06T03:53:01.899Z,9.08
2023-05-06T03:55:28.979Z,9.10
2023-05-06T03:57:55.265Z,9.02
2023-05-06T04:00:21.663Z,8.91
2023-05-06T04:02:48.020Z,8.81
2023-05-06T04:05:14.535Z,8.69
2023-05-06T04:07:40.790Z,8.61
2023-05-06T04:10:08.494Z,8.55
2023-05-06T04:12:35.458Z,8.51
2023-05-06T04:15:02.114Z,8.61
2023-05-06T04:17:28.493Z,8.70
2023-05-06T04:19:55.137Z,8.77
2023-05-06T04:22:21.500Z,8.79
2023-05-06T04:24:47.785Z,8.85
2023-05-06T04:27:14.358Z,8.93
2023-05-06T04:29:41.259Z,8.92
2023-05-06T04:32:09.565Z,8.92
2023-05-06T04:34:36.181Z,8.92
2023-05-06T04:37:02.957Z,9.00
2023-05-06T04:39:31.338Z,8.99
2023-05-06T04:41:57.648Z,9.04
2023-05-06T04:44:24.032Z,9.12
2023-05-06T04:46:50.988Z,9.25
2023-05-06T04:49:17.287Z,9.43
2023-05-06T04:51:43.557Z,9.49
2023-05-06T04:54:09.871Z,9.57
2023-05-06T04:56:36.143Z,9.69
2023-05-06T04:59:02.432Z,9.80
2023-05-06T05:01:28.816Z,9.86
2023-05-06T05:03:55.830Z,9.99
2023-05-06T05:06:22.154Z,10.01
2023-05-06T05:08:48.481Z,10.19
2023-05-06T05:11:14.800Z,10.27
2023-05-06T05:13:41.106Z,10.42
2023-05-06T05:16:07.506Z,10.62
2023-05-06T05:18:33.847Z,10.71
2023-05-06T05:21:00.789Z,10.82
2023-05-06T05:23:27.053Z,10.92
2023-05-06T05:25:53.353Z,11.01
2023-05-06T05:28:19.644Z,11.11
2023-05-06T05:30:45.934Z,11.21
2023-05-06T05:33:12.314Z,11.26
2023-05-06T05:35:38.722Z,11.37
2023-05-06T05:38:05.629Z,11.42
2023-05-06T05:40:31.929Z,11.48
2023-05-06T05:42:58.200Z,11.62
2023-05-06T05:45:24.555Z,11.66
2023-05-06T05:47:50.838Z,11.75
2023-05-06T05:50:17.161Z,11.80
2023-05-06T05:52:43.437Z,11.80
2023-05-06T05:55:10.763Z,11.89
2023-05-06T05:57:37.369Z,11.98
2023-05-06T06:00:05.071Z,11.90
2023-05-06T06:02:33.593Z,11.99
2023-05-06T06:05:00.292Z,12.08
2023-05-06T06:07:26.754Z,12.24
2023-05-06T06:09:53.068Z,12.26
2023-05-06T06:12:20.033Z,12.22
2023-05-06T06:14:47.718Z,12.36
2023-05-06T06:17:14.227Z,12.34
2023-05-06T06:19:40.504Z,12.33
2023-05-06T06:22:06.811Z,12.30
2023-05-06T06:24:34.165Z,12.42
2023-05-06T06:27:00.729Z,12.44
2023-05-06T06:29:27.766Z,12.48
2023-05-06T06:31:55.249Z,12.39
2023-05-06T06:34:21.586Z,12.37
2023-05-06T06:36:47.854Z,12.40
2023-05-06T06:39:14.166Z,12.42
2023-05-06T06:41:41.007Z,12.38
2023-05-06T06:44:07.395Z,12.40
2023-05-06T06:46:34.381Z,12.50
2023-05-06T06:49:00.882Z,12.54
2023-05-06T06:51:27.356Z,12.58
2023-05-06T06:53:53.625Z,12.70
2023-05-06T06:56:21.185Z,12.77
2023-05-06T06:58:47.465Z,12.83
2023-05-06T07:01:13.805Z,12.85
2023-05-06T07:03:40.747Z,12.92
2023-05-06T07:06:07.937Z,12.93
2023-05-06T07:08:34.302Z,13.06
2023-05-06T07:11:00.628Z,13.15
2023-05-06T07:13:26.903Z,13.16
2023-05-06T07:15:53.259Z,13.21
2023-05-06T07:18:19.594Z,13.19
2023-05-06T07:20:46.542Z,13.39
2023-05-06T07:23:12.821Z,13.50
2023-05-06T07:25:39.121Z,13.64
2023-05-06T07:28:05.401Z,13.73
2023-05-06T07:30:31.753Z,13.89
2023-05-06T07:32:58.183Z,14.17
2023-05-06T07:35:24.589Z,14.21
2023-05-06T07:37:51.801Z,14.04
2023-05-06T07:40:18.101Z,14.21
2023-05-06T07:42:44.395Z,14.35
2023-05-06T07:45:11.504Z,14.51
2023-05-06T07:47:38.251Z,14.65
2023-05-06T07:50:06.106Z,14.86
2023-05-06T07:52:32.591Z,14.91
2023-05-06T07:54:59.641Z,15.04
2023-05-06T07:57:26.038Z,14.88
2023-05-06T07:59:52.456Z,14.68
2023-05-06T08:02:19.009Z,14.52
2023-05-06T08:04:45.447Z,14.67
2023-05-06T08:07:14.128Z,14.79
2023-05-06T08:09:40.419Z,15.17
2023-05-06T08:12:07.459Z,15.42
2023-05-06T08:14:33.750Z,15.57
2023-05-06T08:17:00.130Z,15.32
2023-05-06T08:19:26.458Z,15.19
2023-05-06T08:21:52.840Z,15.12
2023-05-06T08:24:19.854Z,15.20
2023-05-06T08:26:46.181Z,15.37
2023-05-06T08:29:13.450Z,15.44
2023-05-06T08:31:39.817Z,15.49
2023-05-06T08:34:06.167Z,15.71
2023-05-06T08:36:32.516Z,15.68
2023-05-06T08:38:58.814Z,15.57
2023-05-06T08:41:26.265Z,15.83
2023-05-06T08:43:54.654Z,15.95
2023-05-06T08:46:22.322Z,16.30
2023-05-06T08:48:48.747Z,15.98
2023-05-06T08:51:15.158Z,16.00
2023-05-06T08:53:46.451Z,16.20
2023-05-06T08:56:14.709Z,16.02
2023-05-06T08:58:44.645Z,15.99
2023-05-06T09:01:11.425Z,15.82
2023-05-06T09:03:38.530Z,15.69
2023-05-06T09:06:05.206Z,15.96
2023-05-06T09:08:31.529Z,16.04
2023-05-06T09:10:57.817Z,16.12
2023-05-06T09:13:24.244Z,16.36
2023-05-06T09:15:53.747Z,16.73
2023-05-06T09:18:20.345Z,17.14
2023-05-06T09:20:48.844Z,17.53
2023-05-06T09:23:16.649Z,17.78
2023-05-06T09:25:45.097Z,17.87
2023-05-06T09:28:12.552Z,17.70
2023-05-06T09:30:40.167Z,17.35
2023-05-06T09:33:06.735Z,17.88
2023-05-06T09:35:37.092Z,17.97
2023-05-06T09:38:06.498Z,17.51
2023-05-06T09:40:33.478Z,18.00
2023-05-06T09:42:59.973Z,18.03
2023-05-06T09:45:26.954Z,17.98
2023-05-06T09:47:54.145Z,18.14
2023-05-06T09:50:21.731Z,18.43
2023-05-06T09:52:49.064Z,18.88
2023-05-06T09:55:18.206Z,19.04
2023-05-06T09:57:45.982Z,19.09
2023-05-06T10:00:14.073Z,19.46
2023-05-06T10:02:41.269Z,20.11
2023-05-06T10:05:09.366Z,20.15
2023-05-06T10:07:36.435Z,19.89
2023-05-06T10:10:03.136Z,20.05
2023-05-06T10:12:30.818Z,20.06
2023-05-06T10:14:57.135Z,19.61
2023-05-06T10:17:25.418Z,19.56
2023-05-06T10:19:56.527Z,19.32
2023-05-06T10:22:37.068Z,19.04
2023-05-06T10:25:10.107Z,19.51
2023-05-06T10:27:40.116Z,19.55
2023-05-06T10:30:10.066Z,20.03
2023-05-06T10:32:41.498Z,20.77
2023-05-06T10:35:15.331Z,20.24
2023-05-06T10:37:43.236Z,20.10
2023-05-06T10:40:10.754Z,20.57
2023-05-06T10:42:37.765Z,20.34
2023-05-06T10:45:06.072Z,19.98
2023-05-06T10:48:08.250Z,18.90
2023-05-06T10:50:34.580Z,18.80
2023-05-06T10:53:00.913Z,18.91
2023-05-06T10:55:29.420Z,19.53
2023-05-06T10:57:59.754Z,20.40
2023-05-06T11:00:26.252Z,20.84
2023-05-06T11:02:57.040Z,21.34
2023-05-06T11:05:24.396Z,20.31
2023-05-06T11:07:51.610Z,20.25
2023-05-06T11:10:31.750Z,21.15
2023-05-06T11:12:59.715Z,21.48
2023-05-06T11:15:37.164Z,21.60
2023-05-06T11:18:42.766Z,22.06
2023-05-06T11:21:39.876Z,22.16
2023-05-06T11:24:07.529Z,21.73
2023-05-06T11:26:34.073Z,22.00
2023-05-06T11:29:03.336Z,21.79
2023-05-06T11:31:30.173Z,21.48
2023-05-06T11:34:01.579Z,21.83
2023-05-06T11:36:28.010Z,21.84
2023-05-06T11:38:55.548Z,21.48
2023-05-06T11:41:23.179Z,21.00
2023-05-06T11:43:51.049Z,20.40
2023-05-06T11:46:19.216Z,19.93
2023-05-06T11:48:45.929Z,19.86
2023-05-06T11:51:12.279Z,20.21
2023-05-06T11:53:38.743Z,20.43
2023-05-06T11:56:06.261Z,19.99
2023-05-06T11:58:33.086Z,20.38
2023-05-06T12:01:01.001Z,20.44
2023-05-06T12:03:29.364Z,20.52
2023-05-06T12:05:56.453Z,20.31
2023-05-06T12:08:27.849Z,20.53
2023-05-06T12:10:55.989Z,21.00
2023-05-06T12:13:22.456Z,20.91
2023-05-06T12:15:49.631Z,20.27
2023-05-06T12:18:16.524Z,20.16
2023-05-06T12:20:44.162Z,20.59
2023-05-06T12:23:11.696Z,21.27
2023-05-06T12:25:38.954Z,21.35
2023-05-06T12:28:13.584Z,21.79
2023-05-06T12:30:39.968Z,22.04
2023-05-06T12:33:08.305Z,21.93
2023-05-06T12:35:34.982Z,21.94
2023-05-06T12:38:09.382Z,21.87
2023-05-06T12:40:35.945Z,21.75
2023-05-06T12:43:02.380Z,21.14
2023-05-06T12:45:28.906Z,21.43
2023-05-06T12:47:56.785Z,21.43
2023-05-06T12:50:34.237Z,21.63
2023-05-06T12:53:01.249Z,21.65
2023-05-06T12:55:29.931Z,21.64
2023-05-06T12:57:57.776Z,22.10
2023-05-06T13:00:24.431Z,21.97
2023-05-06T13:02:50.847Z,21.79
2023-05-06T13:05:17.232Z,21.44
2023-05-06T13:07:43.553Z,20.85
2023-05-06T13:10:10.774Z,21.01
2023-05-06T13:12:38.033Z,21.28
2023-05-06T13:15:05.104Z,21.30
2023-05-06T13:17:31.546Z,20.80
2023-05-06T13:19:58.044Z,20.82
2023-05-06T13:22:24.347Z,20.79
2023-05-06T13:24:50.858Z,20.76
2023-05-06T13:27:17.399Z,20.85
2023-05-06T13:29:44.392Z,20.56
2023-05-06T13:32:10.730Z,20.72
2023-05-06T13:34:37.156Z,20.59
2023-05-06T13:37:03.485Z,20.62
2023-05-06T13:39:30.259Z,20.92
2023-05-06T13:41:56.572Z,20.88
2023-05-06T13:44:23.799Z,20.68
2023-05-06T13:46:51.735Z,20.53
2023-05-06T13:49:18.289Z,20.63
2023-05-06T13:51:44.687Z,20.71
2023-05-06T13:54:11.117Z,20.95
2023-05-06T13:56:37.397Z,20.99
2023-05-06T13:59:03.813Z,21.06
2023-05-06T14:01:30.348Z,20.95
2023-05-06T14:03:57.294Z,21.02
2023-05-06T14:06:23.645Z,21.00
2023-05-06T14:08:49.954Z,21.08
2023-05-06T14:11:16.257Z,21.14
2023-05-06T14:13:42.574Z,21.04
2023-05-06T14:16:08.902Z,21.06
2023-05-06T14:18:35.206Z,20.96
2023-05-06T14:21:02.819Z,20.67
2023-05-06T14:23:29.103Z,20.55
2023-05-06T14:25:55.386Z,20.58
2023-05-06T14:28:21.688Z,20.65
2023-05-06T14:30:50.038Z,20.58
2023-05-06T14:33:16.369Z,20.64
2023-05-06T14:35:42.970Z,20.71
2023-05-06T14:38:10.191Z,20.78
2023-05-06T14:40:37.967Z,20.75
2023-05-06T14:43:04.283Z,20.82
2023-05-06T14:45:30.640Z,20.79
2023-05-06T14:47:57.061Z,20.79
2023-05-06T14:50:23.404Z,20.86
2023-05-06T14:52:49.762Z,20.66
2023-05-06T14:55:17.167Z,20.85
2023-05-06T14:57:43.466Z,20.81
2023-05-06T15:00:13.913Z,20.74
2023-05-06T15:02:42.407Z,20.83
2023-05-06T15:05:09.994Z,21.03
2023-05-06T15:07:36.552Z,21.19
2023-05-06T15:10:03.549Z,21.28
2023-05-06T15:12:30.658Z,21.15
2023-05-06T15:14:56.973Z,21.02
2023-05-06T15:17:23.350Z,20.81
2023-05-06T15:19:49.801Z,21.10
2023-05-06T15:22:16.084Z,21.19
2023-05-06T15:24:42.745Z,21.29
2023-05-06T15:27:09.097Z,21.02
2023-05-06T15:29:37.259Z,21.34
2023-05-06T15:32:03.834Z,21.11
2023-05-06T15:34:30.247Z,21.05
2023-05-06T15:36:56.615Z,21.42
2023-05-06T15:39:23.575Z,21.53
2023-05-06T15:41:50.949Z,21.33
2023-05-06T15:44:20.717Z,21.31
2023-05-06T15:46:48.086Z,21.08
2023-05-06T15:49:45.336Z,21.05
2023-05-06T15:52:01.411Z,21.05
2023-05-06T15:54:28.163Z,20.98
2023-05-06T15:56:55.586Z,21.08
2023-05-06T15:59:21.885Z,21.02
2023-05-06T16:04:18.507Z,21.27
2023-05-06T16:06:44.864Z,21.42
2023-05-06T16:09:11.221Z,21.40
2023-05-06T16:11:37.504Z,21.39
2023-05-06T16:14:04.007Z,21.46
2023-05-06T16:16:30.411Z,21.31
2023-05-06T16:18:57.429Z,21.08
2023-05-06T16:21:23.761Z,21.07
2023-05-06T16:23:50.122Z,21.04
2023-05-06T16:26:16.497Z,20.85
2023-05-06T16:28:42.973Z,20.84
2023-05-06T16:31:09.424Z,20.95
2023-05-06T16:33:35.861Z,21.02
2023-05-06T16:36:03.365Z,20.68
2023-05-06T16:38:29.694Z,20.85
2023-05-06T16:40:56.005Z,20.98
2023-05-06T16:43:22.481Z,21.47
2023-05-06T16:45:51.873Z,21.93
2023-05-06T16:48:18.483Z,22.27
2023-05-06T16:50:44.960Z,22.42
2023-05-06T16:53:12.047Z,22.49
2023-05-06T16:55:38.475Z,22.38
2023-05-06T16:58:04.923Z,21.94
2023-05-06T17:00:31.429Z,21.72
2023-05-06T17:02:57.992Z,21.53
2023-05-06T17:05:24.402Z,21.49
2023-05-06T17:07:51.085Z,21.88
2023-05-06T17:10:18.170Z,22.55
2023-05-06T17:12:44.471Z,22.85
2023-05-06T17:15:11.476Z,22.52
2023-05-06T17:17:39.040Z,21.84
2023-05-06T17:20:06.693Z,21.23
2023-05-06T17:22:33.139Z,20.79
2023-05-06T17:24:59.464Z,20.19
2023-05-06T17:27:26.395Z,19.77
2023-05-06T17:29:52.648Z,19.52
2023-05-06T17:32:19.195Z,19.17
2023-05-06T17:34:45.521Z,18.91
2023-05-06T17:37:11.833Z,18.70
2023-05-06T17:39:38.180Z,18.50
2023-05-06T17:42:04.608Z,18.31
2023-05-06T17:44:32.325Z,18.13
2023-05-06T17:46:58.741Z,18.01
2023-05-06T17:49:25.061Z,17.83
2023-05-06T17:51:51.450Z,17.71
2023-05-06T17:54:18.124Z,17.53
2023-05-06T17:56:49.586Z,17.37
2023-05-06T17:59:19.302Z,17.22
2023-05-06T18:01:46.502Z,17.08
2023-05-06T18:04:13.147Z,16.93
2023-05-06T18:06:40.855Z,16.66
2023-05-06T18:09:07.465Z,16.48
2023-05-06T18:11:34.241Z,16.38
2023-05-06T18:14:00.617Z,16.15
2023-05-06T18:16:26.981Z,15.90
2023-05-06T18:18:53.990Z,15.72
2023-05-06T18:21:20.448Z,15.58
2023-05-06T18:23:46.980Z,15.48
2023-05-06T18:26:18.749Z,15.42
2023-05-06T18:28:50.928Z,15.33
2023-05-06T18:31:17.290Z,15.20
2023-05-06T18:33:43.602Z,15.01
2023-05-06T18:36:11.869Z,14.80
2023-05-06T18:38:38.206Z,14.65
2023-05-06T18:41:06.086Z,14.42
2023-05-06T18:43:32.491Z,14.18
2023-05-06T18:45:58.831Z,14.07
2023-05-06T18:48:25.308Z,13.91
2023-05-06T18:50:53.474Z,13.84
2023-05-06T18:53:20.661Z,13.79
2023-05-06T18:55:47.057Z,13.67
2023-05-06T18:58:13.377Z,13.61
2023-05-06T19:00:40.178Z,13.51
2023-05-06T19:03:06.501Z,13.45
2023-05-06T19:05:32.836Z,13.33
2023-05-06T19:07:59.199Z,13.25
2023-05-06T19:10:26.164Z,13.17
2023-05-06T19:12:52.535Z,13.10
2023-05-06T19:15:18.901Z,13.04
2023-05-06T19:17:45.227Z,13.02
2023-05-06T19:20:13.566Z,12.95
2023-05-06T19:22:40.396Z,12.88
2023-05-06T19:25:08.149Z,12.80
2023-05-06T19:27:35.388Z,12.76
2023-05-06T19:30:01.738Z,12.70
2023-05-06T19:32:28.052Z,12.67
2023-05-06T19:34:54.350Z,12.59
2023-05-06T19:37:20.669Z,12.47
2023-05-06T19:39:48.775Z,12.40
2023-05-06T19:42:15.286Z,12.30
2023-05-06T19:44:42.228Z,12.24
2023-05-06T19:47:08.519Z,12.19
2023-05-06T19:49:35.080Z,12.22
2023-05-06T19:52:01.407Z,12.20
2023-05-06T19:54:27.687Z,12.15
2023-05-06T19:56:53.973Z,12.21
2023-05-06T19:59:20.289Z,12.19
2023-05-06T20:01:47.272Z,12.24
2023-05-06T20:04:13.568Z,12.15
2023-05-06T20:06:39.849Z,12.11
2023-05-06T20:09:06.135Z,12.02
2023-05-06T20:11:35.444Z,12.01
2023-05-06T20:14:01.743Z,11.98
2023-05-06T20:16:28.123Z,12.01
2023-05-06T20:18:55.064Z,12.00
2023-05-06T20:21:21.406Z,11.99
2023-05-06T20:23:47.723Z,11.92
2023-05-06T20:26:14.010Z,11.94
2023-05-06T20:28:40.332Z,11.90
2023-05-06T20:31:06.690Z,11.89
2023-05-06T20:33:33.146Z,11.85
2023-05-06T20:36:00.179Z,11.73
2023-05-06T20:38:26.542Z,11.72
2023-05-06T20:40:52.966Z,11.68
2023-05-06T20:43:19.261Z,11.66
2023-05-06T20:45:45.645Z,11.60
2023-05-06T20:48:12.996Z,11.59
2023-05-06T20:50:41.241Z,11.51
2023-05-06T20:53:08.243Z,11.44
2023-05-06T20:55:34.831Z,11.35
2023-05-06T20:58:01.160Z,11.34
2023-05-06T21:00:27.483Z,11.25
2023-05-06T21:02:53.870Z,11.25
2023-05-06T21:05:20.407Z,11.20
2023-05-06T21:07:46.769Z,11.14
2023-05-06T21:10:13.832Z,11.16
2023-05-06T21:12:46.694Z,11.13
2023-05-06T21:15:13.389Z,11.12
2023-05-06T21:17:40.013Z,11.10
2023-05-06T21:20:07.675Z,11.06
2023-05-06T21:22:34.010Z,10.97
2023-05-06T21:25:00.318Z,10.94
2023-05-06T21:27:27.307Z,10.89
2023-05-06T21:29:53.603Z,10.94
2023-05-06T21:32:19.948Z,10.91
2023-05-06T21:34:46.215Z,10.90
2023-05-06T21:37:12.510Z,10.89
2023-05-06T21:39:38.861Z,10.84
2023-05-06T21:42:05.189Z,10.81
2023-05-06T21:44:32.236Z,10.80
2023-05-06T21:46:58.691Z,10.77
2023-05-06T21:49:24.980Z,10.72
2023-05-06T21:51:51.488Z,10.74
2023-05-06T21:54:17.815Z,10.70
2023-05-06T21:56:44.298Z,10.67
2023-05-06T21:59:10.603Z,10.63
2023-05-06T22:01:38.154Z,10.58
2023-05-06T22:04:10.204Z,10.58
2023-05-06T22:06:36.646Z,10.58
2023-05-06T22:09:07.922Z,10.52
2023-05-06T22:11:34.726Z,10.54
2023-05-06T22:14:01.050Z,10.55
2023-05-06T22:16:27.393Z,10.53
2023-05-06T22:18:54.605Z,10.50
2023-05-06T22:21:20.959Z,10.39
2023-05-06T22:23:47.225Z,10.35
2023-05-06T22:26:13.532Z,10.26
2023-05-06T22:28:39.934Z,10.19
2023-05-06T22:31:06.259Z,10.12
2023-05-06T22:33:32.609Z,10.08
2023-05-06T22:35:59.736Z,10.12
2023-05-06T22:38:26.036Z,10.12
2023-05-06T22:40:52.322Z,10.08
2023-05-06T22:43:18.594Z,10.16
2023-05-06T22:45:45.030Z,10.12
2023-05-06T22:48:11.463Z,10.10
2023-05-06T22:50:37.822Z,10.09
2023-05-06T22:58:21.014Z,9.89
2023-05-06T23:00:47.511Z,9.79
2023-05-06T23:03:14.055Z,9.71
2023-05-06T23:05:40.736Z,9.68
2023-05-06T23:08:07.047Z,9.72
2023-05-06T23:10:33.413Z,9.74
2023-05-06T23:13:00.520Z,9.72
2023-05-06T23:15:27.781Z,9.72
2023-05-06T23:17:54.518Z,9.74
2023-05-06T23:20:21.293Z,9.66
2023-05-06T23:22:47.616Z,9.58
2023-05-06T23:25:14.398Z,9.59
2023-05-06T23:27:41.189Z,9.54
2023-05-06T23:30:08.571Z,9.58
2023-05-06T23:32:35.680Z,9.52
2023-05-06T23:35:02.149Z,9.52
2023-05-06T23:37:28.464Z,9.49
2023-05-06T23:39:56.114Z,9.48
2023-05-06T23:42:22.846Z,9.44
2023-05-06T23:44:50.033Z,9.42
2023-05-06T23:47:16.358Z,9.39
2023-05-06T23:49:43.292Z,9.34
2023-05-06T23:52:10.224Z,9.31
2023-05-06T23:54:36.589Z,9.26
2023-05-06T23:57:02.921Z,9.21
2023-05-06T23:59:31.478Z,9.13
